sensor_id;sensor_type;location;lat;lon;timestamp;temperature;humidity
21271;DHT22;10795;50.796;3.860;2023-09-19T00:00:26;14.90;99.90
21271;DHT22;10795;50.796;3.860;2023-09-19T00:02:53;14.90;99.90
21271;DHT22;10795;50.796;3.860;2023-09-19T00:05:20;14.80;99.90
21271;DHT22;10795;50.796;3.860;2023-09-19T00:07:50;14.80;99.90
21271;DHT22;10795;50.796;3.860;2023-09-19T00:10:16;14.90;99.90
21271;DHT22;10795;50.796;3.860;2023-09-19T00:12:45;14.80;99.90
21271;DHT22;10795;50.796;3.860;2023-09-19T00:15:11;14.80;99.90
21271;DHT22;10795;50.796;3.860;2023-09-19T00:17:36;14.70;99.90
21271;DHT22;10795;50.796;3.860;2023-09-19T00:20:03;14.70;99.90
21271;DHT22;10795;50.796;3.860;2023-09-19T00:22:32;14.60;99.90
21271;DHT22;10795;50.796;3.860;2023-09-19T00:24:58;14.70;99.90
21271;DHT22;10795;50.796;3.860;2023-09-19T00:27:23;14.80;99.90
21271;DHT22;10795;50.796;3.860;2023-09-19T00:29:49;14.90;99.90
21271;DHT22;10795;50.796;3.860;2023-09-19T00:32:15;15.00;99.90
21271;DHT22;10795;50.796;3.860;2023-09-19T00:34:40;14.90;99.90
21271;DHT22;10795;50.796;3.860;2023-09-19T00:37:07;14.80;99.90
21271;DHT22;10795;50.796;3.860;2023-09-19T00:39:33;14.80;99.90
21271;DHT22;10795;50.796;3.860;2023-09-19T00:41:59;14.70;99.90
21271;DHT22;10795;50.796;3.860;2023-09-19T00:44:30;14.60;99.90
21271;DHT22;10795;50.796;3.860;2023-09-19T00:46:55;14.50;99.90
21271;DHT22;10795;50.796;3.860;2023-09-19T00:49:21;14.70;99.90
21271;DHT22;10795;50.796;3.860;2023-09-19T00:51:48;14.60;99.90
21271;DHT22;10795;50.796;3.860;2023-09-19T00:54:14;14.50;99.90
21271;DHT22;10795;50.796;3.860;2023-09-19T00:56:44;14.50;99.90
21271;DHT22;10795;50.796;3.860;2023-09-19T00:59:10;14.40;99.90
21271;DHT22;10795;50.796;3.860;2023-09-19T01:01:37;14.40;99.90
21271;DHT22;10795;50.796;3.860;2023-09-19T01:04:05;14.40;99.90
21271;DHT22;10795;50.796;3.860;2023-09-19T01:06:31;14.50;99.90
21271;DHT22;10795;50.796;3.860;2023-09-19T01:08:57;14.50;99.90
21271;DHT22;10795;50.796;3.860;2023-09-19T01:11:32;14.40;99.90
21271;DHT22;10795;50.796;3.860;2023-09-19T01:16:35;14.50;99.90
21271;DHT22;10795;50.796;3.860;2023-09-19T01:19:13;14.60;99.90
21271;DHT22;10795;50.796;3.860;2023-09-19T01:29:50;14.40;99.90
21271;DHT22;10795;50.796;3.860;2023-09-19T01:32:17;14.50;99.90
21271;DHT22;10795;50.796;3.860;2023-09-19T01:34:54;14.50;99.90
21271;DHT22;10795;50.796;3.860;2023-09-19T01:37:23;14.60;99.90
21271;DHT22;10795;50.796;3.860;2023-09-19T01:39:59;14.50;99.90
21271;DHT22;10795;50.796;3.860;2023-09-19T01:43:33;14.60;99.90
21271;DHT22;10795;50.796;3.860;2023-09-19T01:48:25;14.60;99.90
21271;DHT22;10795;50.796;3.860;2023-09-19T01:51:05;14.70;99.90
21271;DHT22;10795;50.796;3.860;2023-09-19T01:53:41;14.80;99.90
21271;DHT22;10795;50.796;3.860;2023-09-19T01:56:10;14.60;99.90
21271;DHT22;10795;50.796;3.860;2023-09-19T01:58:52;14.70;99.90
21271;DHT22;10795;50.796;3.860;2023-09-19T02:01:21;14.70;99.90
21271;DHT22;10795;50.796;3.860;2023-09-19T02:03:47;14.60;99.90
21271;DHT22;10795;50.796;3.860;2023-09-19T02:06:17;14.60;99.90
21271;DHT22;10795;50.796;3.860;2023-09-19T02:08:44;14.60;99.90
21271;DHT22;10795;50.796;3.860;2023-09-19T02:11:13;14.70;99.90
21271;DHT22;10795;50.796;3.860;2023-09-19T02:13:39;14.60;99.90
21271;DHT22;10795;50.796;3.860;2023-09-19T02:16:06;14.80;99.90
21271;DHT22;10795;50.796;3.860;2023-09-19T02:18:32;14.80;99.90
21271;DHT22;10795;50.796;3.860;2023-09-19T02:21:00;14.90;99.90
21271;DHT22;10795;50.796;3.860;2023-09-19T02:23:26;14.80;99.90
21271;DHT22;10795;50.796;3.860;2023-09-19T02:25:52;14.80;99.90
21271;DHT22;10795;50.796;3.860;2023-09-19T02:28:19;14.80;99.90
21271;DHT22;10795;50.796;3.860;2023-09-19T02:30:47;14.70;99.90
21271;DHT22;10795;50.796;3.860;2023-09-19T02:33:13;14.60;99.90
21271;DHT22;10795;50.796;3.860;2023-09-19T02:35:39;14.50;99.90
21271;DHT22;10795;50.796;3.860;2023-09-19T02:38:04;14.50;99.90
21271;DHT22;10795;50.796;3.860;2023-09-19T02:40:32;14.40;99.90
21271;DHT22;10795;50.796;3.860;2023-09-19T02:43:01;14.50;99.90
21271;DHT22;10795;50.796;3.860;2023-09-19T02:45:27;14.50;99.90
21271;DHT22;10795;50.796;3.860;2023-09-19T02:47:53;14.40;99.90
21271;DHT22;10795;50.796;3.860;2023-09-19T02:50:20;14.20;99.90
21271;DHT22;10795;50.796;3.860;2023-09-19T02:52:46;14.00;99.90
21271;DHT22;10795;50.796;3.860;2023-09-19T02:55:15;14.00;99.90
21271;DHT22;10795;50.796;3.860;2023-09-19T02:58:16;14.00;99.90
21271;DHT22;10795;50.796;3.860;2023-09-19T03:00:37;14.10;99.90
21271;DHT22;10795;50.796;3.860;2023-09-19T03:03:03;14.00;99.90
21271;DHT22;10795;50.796;3.860;2023-09-19T03:05:29;14.00;99.90
21271;DHT22;10795;50.796;3.860;2023-09-19T03:07:57;14.00;99.90
21271;DHT22;10795;50.796;3.860;2023-09-19T03:10:26;13.90;99.90
21271;DHT22;10795;50.796;3.860;2023-09-19T03:12:52;13.80;99.90
21271;DHT22;10795;50.796;3.860;2023-09-19T03:15:18;13.80;99.90
21271;DHT22;10795;50.796;3.860;2023-09-19T03:17:45;13.90;99.90
21271;DHT22;10795;50.796;3.860;2023-09-19T03:20:12;14.00;99.90
21271;DHT22;10795;50.796;3.860;2023-09-19T03:22:43;14.00;99.90
21271;DHT22;10795;50.796;3.860;2023-09-19T03:25:09;14.10;99.90
21271;DHT22;10795;50.796;3.860;2023-09-19T03:27:38;14.30;99.90
21271;DHT22;10795;50.796;3.860;2023-09-19T03:30:06;14.50;99.90
21271;DHT22;10795;50.796;3.860;2023-09-19T03:32:34;14.50;99.90
21271;DHT22;10795;50.796;3.860;2023-09-19T03:35:01;14.30;99.90
21271;DHT22;10795;50.796;3.860;2023-09-19T03:37:26;14.40;99.90
21271;DHT22;10795;50.796;3.860;2023-09-19T03:39:52;14.40;99.90
21271;DHT22;10795;50.796;3.860;2023-09-19T03:42:18;14.60;99.90
21271;DHT22;10795;50.796;3.860;2023-09-19T03:44:51;14.50;99.90
21271;DHT22;10795;50.796;3.860;2023-09-19T03:47:18;14.40;99.90
21271;DHT22;10795;50.796;3.860;2023-09-19T03:49:45;13.90;99.90
21271;DHT22;10795;50.796;3.860;2023-09-19T03:52:11;14.00;99.90
21271;DHT22;10795;50.796;3.860;2023-09-19T03:54:36;14.10;99.90
21271;DHT22;10795;50.796;3.860;2023-09-19T03:57:03;13.90;99.90
21271;DHT22;10795;50.796;3.860;2023-09-19T03:59:29;13.80;99.90
21271;DHT22;10795;50.796;3.860;2023-09-19T04:01:55;13.70;99.90
21271;DHT22;10795;50.796;3.860;2023-09-19T04:04:22;13.90;99.90
21271;DHT22;10795;50.796;3.860;2023-09-19T04:06:53;13.80;99.90
21271;DHT22;10795;50.796;3.860;2023-09-19T04:09:18;13.80;99.90
21271;DHT22;10795;50.796;3.860;2023-09-19T04:11:44;13.90;99.90
21271;DHT22;10795;50.796;3.860;2023-09-19T04:14:10;14.00;99.90
21271;DHT22;10795;50.796;3.860;2023-09-19T04:16:36;14.10;99.90
21271;DHT22;10795;50.796;3.860;2023-09-19T04:19:02;14.00;99.90
21271;DHT22;10795;50.796;3.860;2023-09-19T04:21:29;13.90;99.90
21271;DHT22;10795;50.796;3.860;2023-09-19T04:23:55;14.00;99.90
21271;DHT22;10795;50.796;3.860;2023-09-19T04:26:20;14.10;99.90
21271;DHT22;10795;50.796;3.860;2023-09-19T04:28:47;13.80;99.90
21271;DHT22;10795;50.796;3.860;2023-09-19T04:31:12;13.90;99.90
21271;DHT22;10795;50.796;3.860;2023-09-19T04:33:39;13.80;99.90
21271;DHT22;10795;50.796;3.860;2023-09-19T04:36:05;13.70;99.90
21271;DHT22;10795;50.796;3.860;2023-09-19T04:38:33;13.60;99.90
21271;DHT22;10795;50.796;3.860;2023-09-19T04:40:58;13.60;99.90
21271;DHT22;10795;50.796;3.860;2023-09-19T04:43:24;13.70;99.90
21271;DHT22;10795;50.796;3.860;2023-09-19T04:45:50;13.70;99.90
21271;DHT22;10795;50.796;3.860;2023-09-19T04:48:16;13.70;99.90
21271;DHT22;10795;50.796;3.860;2023-09-19T04:50:42;13.60;99.90
21271;DHT22;10795;50.796;3.860;2023-09-19T04:53:08;13.80;99.90
21271;DHT22;10795;50.796;3.860;2023-09-19T04:55:34;13.70;99.90
21271;DHT22;10795;50.796;3.860;2023-09-19T04:57:59;13.70;99.90
21271;DHT22;10795;50.796;3.860;2023-09-19T05:00:25;13.60;99.90
21271;DHT22;10795;50.796;3.860;2023-09-19T05:02:56;13.70;99.90
21271;DHT22;10795;50.796;3.860;2023-09-19T05:05:22;13.70;99.90
21271;DHT22;10795;50.796;3.860;2023-09-19T05:07:49;13.70;99.90
21271;DHT22;10795;50.796;3.860;2023-09-19T05:10:14;13.70;99.90
21271;DHT22;10795;50.796;3.860;2023-09-19T05:12:41;13.80;99.90
21271;DHT22;10795;50.796;3.860;2023-09-19T05:15:07;13.90;99.90
21271;DHT22;10795;50.796;3.860;2023-09-19T05:17:33;13.90;99.90
21271;DHT22;10795;50.796;3.860;2023-09-19T05:20:00;13.90;99.90
21271;DHT22;10795;50.796;3.860;2023-09-19T05:22:43;14.00;99.90
21271;DHT22;10795;50.796;3.860;2023-09-19T05:25:11;13.90;99.90
21271;DHT22;10795;50.796;3.860;2023-09-19T05:27:42;14.00;99.90
21271;DHT22;10795;50.796;3.860;2023-09-19T05:30:08;14.00;99.90
21271;DHT22;10795;50.796;3.860;2023-09-19T05:32:33;14.10;99.90
21271;DHT22;10795;50.796;3.860;2023-09-19T05:34:59;14.20;99.90
21271;DHT22;10795;50.796;3.860;2023-09-19T05:37:25;14.00;99.90
21271;DHT22;10795;50.796;3.860;2023-09-19T05:39:51;14.00;99.90
21271;DHT22;10795;50.796;3.860;2023-09-19T05:42:18;14.00;99.90
21271;DHT22;10795;50.796;3.860;2023-09-19T05:44:44;14.00;99.90
21271;DHT22;10795;50.796;3.860;2023-09-19T05:47:09;14.00;99.90
21271;DHT22;10795;50.796;3.860;2023-09-19T05:49:35;14.00;99.90
21271;DHT22;10795;50.796;3.860;2023-09-19T05:52:04;14.10;99.90
21271;DHT22;10795;50.796;3.860;2023-09-19T05:54:30;14.00;99.90
21271;DHT22;10795;50.796;3.860;2023-09-19T05:56:56;14.00;99.90
21271;DHT22;10795;50.796;3.860;2023-09-19T05:59:23;14.10;99.90
21271;DHT22;10795;50.796;3.860;2023-09-19T06:01:48;14.10;99.90
21271;DHT22;10795;50.796;3.860;2023-09-19T06:04:14;14.10;99.90
21271;DHT22;10795;50.796;3.860;2023-09-19T06:06:40;14.00;99.90
21271;DHT22;10795;50.796;3.860;2023-09-19T06:09:06;14.00;99.90
21271;DHT22;10795;50.796;3.860;2023-09-19T06:11:32;13.90;99.90
21271;DHT22;10795;50.796;3.860;2023-09-19T06:14:00;14.00;99.90
21271;DHT22;10795;50.796;3.860;2023-09-19T06:16:30;14.00;99.90
21271;DHT22;10795;50.796;3.860;2023-09-19T06:18:57;13.90;99.90
21271;DHT22;10795;50.796;3.860;2023-09-19T06:21:25;14.00;99.90
21271;DHT22;10795;50.796;3.860;2023-09-19T06:23:52;14.10;99.90
21271;DHT22;10795;50.796;3.860;2023-09-19T06:26:18;14.20;99.90
21271;DHT22;10795;50.796;3.860;2023-09-19T06:28:44;14.30;99.90
21271;DHT22;10795;50.796;3.860;2023-09-19T06:31:09;14.50;99.90
21271;DHT22;10795;50.796;3.860;2023-09-19T06:33:36;14.40;99.90
21271;DHT22;10795;50.796;3.860;2023-09-19T06:36:04;14.40;99.90
21271;DHT22;10795;50.796;3.860;2023-09-19T06:38:30;14.40;99.90
21271;DHT22;10795;50.796;3.860;2023-09-19T06:40:58;14.40;99.90
21271;DHT22;10795;50.796;3.860;2023-09-19T06:43:23;14.40;99.90
21271;DHT22;10795;50.796;3.860;2023-09-19T06:45:49;14.40;99.90
21271;DHT22;10795;50.796;3.860;2023-09-19T06:48:17;14.50;99.90
21271;DHT22;10795;50.796;3.860;2023-09-19T06:50:43;14.70;99.90
21271;DHT22;10795;50.796;3.860;2023-09-19T06:53:10;14.80;99.90
21271;DHT22;10795;50.796;3.860;2023-09-19T06:55:35;14.80;99.90
21271;DHT22;10795;50.796;3.860;2023-09-19T06:58:02;14.90;99.90
21271;DHT22;10795;50.796;3.860;2023-09-19T07:00:27;15.10;99.90
21271;DHT22;10795;50.796;3.860;2023-09-19T07:02:57;15.20;99.90
21271;DHT22;10795;50.796;3.860;2023-09-19T07:05:24;15.40;99.90
21271;DHT22;10795;50.796;3.860;2023-09-19T07:07:49;15.40;99.90
21271;DHT22;10795;50.796;3.860;2023-09-19T07:10:15;15.40;99.90
21271;DHT22;10795;50.796;3.860;2023-09-19T07:12:41;15.50;99.90
21271;DHT22;10795;50.796;3.860;2023-09-19T07:15:07;15.70;99.90
21271;DHT22;10795;50.796;3.860;2023-09-19T07:17:33;15.70;99.90
21271;DHT22;10795;50.796;3.860;2023-09-19T07:19:59;15.80;99.90
21271;DHT22;10795;50.796;3.860;2023-09-19T07:22:28;15.90;99.90
21271;DHT22;10795;50.796;3.860;2023-09-19T07:24:53;16.00;99.90
21271;DHT22;10795;50.796;3.860;2023-09-19T07:27:20;16.00;99.90
21271;DHT22;10795;50.796;3.860;2023-09-19T07:29:48;15.90;99.90
21271;DHT22;10795;50.796;3.860;2023-09-19T07:32:16;16.00;99.90
21271;DHT22;10795;50.796;3.860;2023-09-19T07:34:42;16.00;99.90
21271;DHT22;10795;50.796;3.860;2023-09-19T07:37:10;16.10;99.90
21271;DHT22;10795;50.796;3.860;2023-09-19T07:39:38;16.10;99.90
21271;DHT22;10795;50.796;3.860;2023-09-19T07:42:06;16.40;99.90
21271;DHT22;10795;50.796;3.860;2023-09-19T07:44:34;16.40;99.90
21271;DHT22;10795;50.796;3.860;2023-09-19T07:47:00;16.60;99.90
21271;DHT22;10795;50.796;3.860;2023-09-19T07:49:28;16.70;99.90
21271;DHT22;10795;50.796;3.860;2023-09-19T07:51:54;16.70;99.90
21271;DHT22;10795;50.796;3.860;2023-09-19T07:54:20;17.00;99.90
21271;DHT22;10795;50.796;3.860;2023-09-19T07:56:46;17.00;99.90
21271;DHT22;10795;50.796;3.860;2023-09-19T08:01:58;17.10;99.90
21271;DHT22;10795;50.796;3.860;2023-09-19T08:04:26;17.30;99.90
21271;DHT22;10795;50.796;3.860;2023-09-19T08:06:53;17.30;99.90
21271;DHT22;10795;50.796;3.860;2023-09-19T08:09:21;17.20;99.90
21271;DHT22;10795;50.796;3.860;2023-09-19T08:11:47;17.70;99.90
21271;DHT22;10795;50.796;3.860;2023-09-19T08:14:13;17.70;99.90
21271;DHT22;10795;50.796;3.860;2023-09-19T08:16:45;17.50;99.90
21271;DHT22;10795;50.796;3.860;2023-09-19T08:19:11;17.50;99.90
21271;DHT22;10795;50.796;3.860;2023-09-19T08:21:37;17.70;99.90
21271;DHT22;10795;50.796;3.860;2023-09-19T08:24:03;18.00;99.90
21271;DHT22;10795;50.796;3.860;2023-09-19T08:26:31;17.90;99.90
21271;DHT22;10795;50.796;3.860;2023-09-19T08:28:57;18.10;99.90
21271;DHT22;10795;50.796;3.860;2023-09-19T08:31:31;17.70;99.90
21271;DHT22;10795;50.796;3.860;2023-09-19T08:33:57;18.00;99.90
21271;DHT22;10795;50.796;3.860;2023-09-19T08:36:22;18.50;99.90
21271;DHT22;10795;50.796;3.860;2023-09-19T08:38:48;18.20;99.90
21271;DHT22;10795;50.796;3.860;2023-09-19T08:41:14;18.10;99.90
21271;DHT22;10795;50.796;3.860;2023-09-19T08:43:42;18.30;99.90
21271;DHT22;10795;50.796;3.860;2023-09-19T08:46:10;18.60;99.90
21271;DHT22;10795;50.796;3.860;2023-09-19T08:48:39;18.60;99.90
21271;DHT22;10795;50.796;3.860;2023-09-19T08:51:10;18.20;99.90
21271;DHT22;10795;50.796;3.860;2023-09-19T08:56:03;18.30;99.90
21271;DHT22;10795;50.796;3.860;2023-09-19T08:58:34;18.00;99.90
21271;DHT22;10795;50.796;3.860;2023-09-19T09:01:03;18.20;99.90
21271;DHT22;10795;50.796;3.860;2023-09-19T09:03:32;18.00;99.90
21271;DHT22;10795;50.796;3.860;2023-09-19T09:05:58;18.50;99.90
21271;DHT22;10795;50.796;3.860;2023-09-19T09:08:23;18.60;99.90
21271;DHT22;10795;50.796;3.860;2023-09-19T09:10:50;18.80;99.90
21271;DHT22;10795;50.796;3.860;2023-09-19T09:13:15;18.80;99.90
21271;DHT22;10795;50.796;3.860;2023-09-19T09:15:42;19.00;99.90
21271;DHT22;10795;50.796;3.860;2023-09-19T09:18:10;18.60;99.90
21271;DHT22;10795;50.796;3.860;2023-09-19T09:20:36;19.20;99.90
21271;DHT22;10795;50.796;3.860;2023-09-19T09:23:01;19.20;99.90
21271;DHT22;10795;50.796;3.860;2023-09-19T09:30:36;19.00;99.90
21271;DHT22;10795;50.796;3.860;2023-09-19T09:33:10;18.90;99.90
21271;DHT22;10795;50.796;3.860;2023-09-19T09:35:46;18.60;99.90
21271;DHT22;10795;50.796;3.860;2023-09-19T09:38:12;18.40;99.90
21271;DHT22;10795;50.796;3.860;2023-09-19T09:40:50;18.60;99.90
21271;DHT22;10795;50.796;3.860;2023-09-19T09:43:37;18.70;99.90
21271;DHT22;10795;50.796;3.860;2023-09-19T09:46:18;18.50;99.90
21271;DHT22;10795;50.796;3.860;2023-09-19T09:49:07;18.80;99.90
21271;DHT22;10795;50.796;3.860;2023-09-19T09:51:49;18.80;99.90
21271;DHT22;10795;50.796;3.860;2023-09-19T09:54:24;18.80;99.90
21271;DHT22;10795;50.796;3.860;2023-09-19T09:57:00;18.90;99.90
21271;DHT22;10795;50.796;3.860;2023-09-19T09:59:55;19.00;99.90
21271;DHT22;10795;50.796;3.860;2023-09-19T10:02:31;19.30;99.90
21271;DHT22;10795;50.796;3.860;2023-09-19T10:05:17;19.30;99.90
21271;DHT22;10795;50.796;3.860;2023-09-19T10:07:47;19.40;99.90
21271;DHT22;10795;50.796;3.860;2023-09-19T10:10:33;19.50;99.90
21271;DHT22;10795;50.796;3.860;2023-09-19T10:13:11;19.80;99.90
21271;DHT22;10795;50.796;3.860;2023-09-19T10:15:49;20.10;99.90
21271;DHT22;10795;50.796;3.860;2023-09-19T10:18:26;20.40;99.90
21271;DHT22;10795;50.796;3.860;2023-09-19T10:20:56;20.00;99.90
21271;DHT22;10795;50.796;3.860;2023-09-19T10:23:25;19.90;99.90
21271;DHT22;10795;50.796;3.860;2023-09-19T10:25:52;20.10;99.90
21271;DHT22;10795;50.796;3.860;2023-09-19T10:28:19;20.00;99.90
21271;DHT22;10795;50.796;3.860;2023-09-19T10:30:49;19.90;99.90
21271;DHT22;10795;50.796;3.860;2023-09-19T10:33:23;20.10;99.90
21271;DHT22;10795;50.796;3.860;2023-09-19T10:35:51;20.70;99.90
21271;DHT22;10795;50.796;3.860;2023-09-19T10:38:19;20.70;99.90
21271;DHT22;10795;50.796;3.860;2023-09-19T10:40:53;21.10;99.90
21271;DHT22;10795;50.796;3.860;2023-09-19T10:43:21;21.50;99.90
21271;DHT22;10795;50.796;3.860;2023-09-19T10:45:48;20.80;99.90
21271;DHT22;10795;50.796;3.860;2023-09-19T10:48:19;20.80;99.90
21271;DHT22;10795;50.796;3.860;2023-09-19T10:53:26;20.90;99.90
21271;DHT22;10795;50.796;3.860;2023-09-19T10:55:59;21.00;99.90
21271;DHT22;10795;50.796;3.860;2023-09-19T10:58:31;21.30;99.90
21271;DHT22;10795;50.796;3.860;2023-09-19T11:01:00;20.90;99.90
21271;DHT22;10795;50.796;3.860;2023-09-19T11:03:33;21.00;99.90
21271;DHT22;10795;50.796;3.860;2023-09-19T11:06:14;20.90;99.90
21271;DHT22;10795;50.796;3.860;2023-09-19T11:09:02;20.70;99.90
21271;DHT22;10795;50.796;3.860;2023-09-19T11:11:42;20.70;99.90
21271;DHT22;10795;50.796;3.860;2023-09-19T11:30:47;20.60;99.90
21271;DHT22;10795;50.796;3.860;2023-09-19T11:33:23;20.70;99.90
21271;DHT22;10795;50.796;3.860;2023-09-19T11:36:09;21.10;99.90
21271;DHT22;10795;50.796;3.860;2023-09-19T11:46:52;21.00;99.90
21271;DHT22;10795;50.796;3.860;2023-09-19T11:49:19;20.70;99.90
21271;DHT22;10795;50.796;3.860;2023-09-19T11:51:56;20.50;99.90
21271;DHT22;10795;50.796;3.860;2023-09-19T11:54:23;20.30;99.90
21271;DHT22;10795;50.796;3.860;2023-09-19T11:56:51;20.50;99.90
21271;DHT22;10795;50.796;3.860;2023-09-19T11:59:45;20.60;99.90
21271;DHT22;10795;50.796;3.860;2023-09-19T12:02:29;20.80;99.90
21271;DHT22;10795;50.796;3.860;2023-09-19T12:05:00;21.10;99.90
21271;DHT22;10795;50.796;3.860;2023-09-19T12:07:25;20.80;99.90
21271;DHT22;10795;50.796;3.860;2023-09-19T12:10:04;20.70;99.90
21271;DHT22;10795;50.796;3.860;2023-09-19T12:12:30;20.30;99.90
21271;DHT22;10795;50.796;3.860;2023-09-19T12:14:58;20.30;99.90
21271;DHT22;10795;50.796;3.860;2023-09-19T12:17:39;20.20;99.90
21271;DHT22;10795;50.796;3.860;2023-09-19T12:20:06;20.00;99.90
21271;DHT22;10795;50.796;3.860;2023-09-19T12:22:40;20.00;99.90
21271;DHT22;10795;50.796;3.860;2023-09-19T12:25:06;19.80;99.90
21271;DHT22;10795;50.796;3.860;2023-09-19T12:27:42;20.00;99.90
21271;DHT22;10795;50.796;3.860;2023-09-19T12:30:09;20.10;99.90
21271;DHT22;10795;50.796;3.860;2023-09-19T12:32:36;20.30;99.90
21271;DHT22;10795;50.796;3.860;2023-09-19T12:35:08;20.40;99.90
21271;DHT22;10795;50.796;3.860;2023-09-19T12:37:45;20.30;99.90
21271;DHT22;10795;50.796;3.860;2023-09-19T12:40:21;20.30;99.90
21271;DHT22;10795;50.796;3.860;2023-09-19T12:42:54;20.10;99.90
21271;DHT22;10795;50.796;3.860;2023-09-19T12:45:31;20.00;99.90
21271;DHT22;10795;50.796;3.860;2023-09-19T12:51:02;20.10;99.90
21271;DHT22;10795;50.796;3.860;2023-09-19T12:53:39;20.10;99.90
21271;DHT22;10795;50.796;3.860;2023-09-19T12:56:18;20.00;99.90
21271;DHT22;10795;50.796;3.860;2023-09-19T12:58:57;20.10;99.90
21271;DHT22;10795;50.796;3.860;2023-09-19T13:01:26;20.20;99.90
21271;DHT22;10795;50.796;3.860;2023-09-19T13:04:18;20.20;99.90
21271;DHT22;10795;50.796;3.860;2023-09-19T13:06:49;20.20;99.90
21271;DHT22;10795;50.796;3.860;2023-09-19T13:09:16;20.30;99.90
21271;DHT22;10795;50.796;3.860;2023-09-19T13:11:42;20.40;99.90
21271;DHT22;10795;50.796;3.860;2023-09-19T13:16:58;20.40;99.90
21271;DHT22;10795;50.796;3.860;2023-09-19T13:19:44;20.20;99.90
21271;DHT22;10795;50.796;3.860;2023-09-19T13:22:38;20.20;99.90
21271;DHT22;10795;50.796;3.860;2023-09-19T13:25:07;20.30;99.90
21271;DHT22;10795;50.796;3.860;2023-09-19T13:27:34;20.40;99.90
21271;DHT22;10795;50.796;3.860;2023-09-19T13:29:59;20.50;99.90
21271;DHT22;10795;50.796;3.860;2023-09-19T13:32:26;20.40;99.90
21271;DHT22;10795;50.796;3.860;2023-09-19T13:34:52;20.30;99.90
21271;DHT22;10795;50.796;3.860;2023-09-19T13:37:17;20.00;99.90
21271;DHT22;10795;50.796;3.860;2023-09-19T13:39:44;20.00;99.90
21271;DHT22;10795;50.796;3.860;2023-09-19T13:42:16;20.20;99.90
21271;DHT22;10795;50.796;3.860;2023-09-19T13:44:42;20.20;99.90
21271;DHT22;10795;50.796;3.860;2023-09-19T13:47:09;20.20;99.90
21271;DHT22;10795;50.796;3.860;2023-09-19T13:49:38;20.10;99.90
21271;DHT22;10795;50.796;3.860;2023-09-19T13:52:04;20.00;99.90
21271;DHT22;10795;50.796;3.860;2023-09-19T13:54:30;20.10;99.90
21271;DHT22;10795;50.796;3.860;2023-09-19T13:56:56;20.10;99.90
21271;DHT22;10795;50.796;3.860;2023-09-19T13:59:22;20.00;99.90
21271;DHT22;10795;50.796;3.860;2023-09-19T14:01:51;20.10;99.90
21271;DHT22;10795;50.796;3.860;2023-09-19T14:04:19;20.00;99.90
21271;DHT22;10795;50.796;3.860;2023-09-19T14:06:47;19.90;99.90
21271;DHT22;10795;50.796;3.860;2023-09-19T14:09:13;20.00;99.90
21271;DHT22;10795;50.796;3.860;2023-09-19T14:11:39;19.90;99.90
21271;DHT22;10795;50.796;3.860;2023-09-19T14:14:05;19.80;99.90
21271;DHT22;10795;50.796;3.860;2023-09-19T14:16:31;19.90;99.90
21271;DHT22;10795;50.796;3.860;2023-09-19T14:18:57;20.10;99.90
21271;DHT22;10795;50.796;3.860;2023-09-19T14:21:26;19.90;99.90
21271;DHT22;10795;50.796;3.860;2023-09-19T14:23:52;19.80;99.90
21271;DHT22;10795;50.796;3.860;2023-09-19T14:26:20;19.80;99.90
21271;DHT22;10795;50.796;3.860;2023-09-19T14:28:45;19.80;99.90
21271;DHT22;10795;50.796;3.860;2023-09-19T14:31:11;19.80;99.90
21271;DHT22;10795;50.796;3.860;2023-09-19T14:33:38;19.70;99.90
21271;DHT22;10795;50.796;3.860;2023-09-19T14:36:05;19.70;99.90
21271;DHT22;10795;50.796;3.860;2023-09-19T14:38:33;19.60;99.90
21271;DHT22;10795;50.796;3.860;2023-09-19T14:41:03;19.50;99.90
21271;DHT22;10795;50.796;3.860;2023-09-19T14:43:29;19.50;99.90
21271;DHT22;10795;50.796;3.860;2023-09-19T14:45:56;19.40;99.90
21271;DHT22;10795;50.796;3.860;2023-09-19T14:48:23;19.40;99.90
21271;DHT22;10795;50.796;3.860;2023-09-19T14:50:52;19.40;99.90
21271;DHT22;10795;50.796;3.860;2023-09-19T14:53:18;19.40;99.90
21271;DHT22;10795;50.796;3.860;2023-09-19T14:55:44;19.30;99.90
21271;DHT22;10795;50.796;3.860;2023-09-19T14:58:11;19.30;99.90
21271;DHT22;10795;50.796;3.860;2023-09-19T15:00:37;19.30;99.90
21271;DHT22;10795;50.796;3.860;2023-09-19T15:03:04;19.40;99.90
21271;DHT22;10795;50.796;3.860;2023-09-19T15:05:29;19.30;99.90
21271;DHT22;10795;50.796;3.860;2023-09-19T15:07:56;19.30;99.90
21271;DHT22;10795;50.796;3.860;2023-09-19T15:10:23;19.30;99.90
21271;DHT22;10795;50.796;3.860;2023-09-19T15:12:48;19.30;99.90
21271;DHT22;10795;50.796;3.860;2023-09-19T15:15:14;19.40;99.90
21271;DHT22;10795;50.796;3.860;2023-09-19T15:17:40;19.30;99.90
21271;DHT22;10795;50.796;3.860;2023-09-19T15:20:07;19.30;99.90
21271;DHT22;10795;50.796;3.860;2023-09-19T15:22:33;19.30;99.90
21271;DHT22;10795;50.796;3.860;2023-09-19T15:25:01;19.20;99.90
21271;DHT22;10795;50.796;3.860;2023-09-19T15:27:28;19.10;99.90
21271;DHT22;10795;50.796;3.860;2023-09-19T15:29:57;19.20;99.90
21271;DHT22;10795;50.796;3.860;2023-09-19T15:32:24;19.20;99.90
21271;DHT22;10795;50.796;3.860;2023-09-19T15:34:50;19.30;99.90
21271;DHT22;10795;50.796;3.860;2023-09-19T15:37:16;19.30;99.90
21271;DHT22;10795;50.796;3.860;2023-09-19T15:39:42;19.30;99.90
21271;DHT22;10795;50.796;3.860;2023-09-19T15:42:10;19.20;99.90
21271;DHT22;10795;50.796;3.860;2023-09-19T15:44:36;19.10;99.90
21271;DHT22;10795;50.796;3.860;2023-09-19T15:47:03;19.10;99.90
21271;DHT22;10795;50.796;3.860;2023-09-19T15:49:29;19.10;99.90
21271;DHT22;10795;50.796;3.860;2023-09-19T15:51:55;19.20;99.90
21271;DHT22;10795;50.796;3.860;2023-09-19T15:54:21;19.20;99.90
21271;DHT22;10795;50.796;3.860;2023-09-19T15:56:47;19.10;99.90
21271;DHT22;10795;50.796;3.860;2023-09-19T15:59:14;19.00;99.90
21271;DHT22;10795;50.796;3.860;2023-09-19T16:01:43;19.00;99.90
21271;DHT22;10795;50.796;3.860;2023-09-19T16:04:10;19.10;99.90
21271;DHT22;10795;50.796;3.860;2023-09-19T16:06:38;19.10;99.90
21271;DHT22;10795;50.796;3.860;2023-09-19T16:09:04;19.00;99.90
21271;DHT22;10795;50.796;3.860;2023-09-19T16:11:33;18.90;99.90
21271;DHT22;10795;50.796;3.860;2023-09-19T16:13:59;18.80;99.90
21271;DHT22;10795;50.796;3.860;2023-09-19T16:16:27;18.80;99.90
21271;DHT22;10795;50.796;3.860;2023-09-19T16:19:02;18.90;99.90
21271;DHT22;10795;50.796;3.860;2023-09-19T16:21:33;18.70;99.90
21271;DHT22;10795;50.796;3.860;2023-09-19T16:24:00;18.50;99.90
21271;DHT22;10795;50.796;3.860;2023-09-19T16:26:28;18.50;99.90
21271;DHT22;10795;50.796;3.860;2023-09-19T16:28:55;18.60;99.90
21271;DHT22;10795;50.796;3.860;2023-09-19T16:31:26;18.60;99.90
21271;DHT22;10795;50.796;3.860;2023-09-19T16:33:53;18.50;99.90
21271;DHT22;10795;50.796;3.860;2023-09-19T16:36:20;18.50;99.90